Archiv-/Tagesdaten

--Timestamp---	Temp	Chill	HIndex	Humid	Dewpt	 Wind 	HiWind	WindDir	Rain 	Barom	Solar	 ET  	 UV 
--------------	----	-----	------	-----	-----	------	------	-------	-----	-----	-----	-----	----
20090918 00:00	15.6	15.6	15.6	94	14.6	0	0	-100000	0.0	1015.0	0	0.000	0.0
20090918 00:05	15.6	15.6	15.6	94	14.6	0	0	-100000	0.0	1015.0	0	0.000	0.0
20090918 00:10	15.6	15.6	15.6	94	14.6	0	0	-100000	0.0	1015.0	0	0.000	0.0
20090918 00:15	15.6	15.6	15.6	94	14.6	0	0	-100000	0.0	1015.0	0	0.000	0.0
20090918 00:20	15.6	15.6	15.6	94	14.6	0	0	-100000	0.0	1015.0	0	0.000	0.0
20090918 00:25	15.5	15.5	15.5	94	14.5	0	0	-100000	0.0	1015.0	0	0.000	0.0
20090918 00:30	15.6	15.6	15.6	94	14.6	0	0	-100000	0.0	1015.0	0	0.000	0.0
20090918 00:35	15.5	15.5	15.5	94	14.5	0	0	-100000	0.0	1015.0	0	0.000	0.0
20090918 00:40	15.5	15.5	15.5	94	14.5	0	0	-100000	0.0	1015.0	0	0.000	0.0
20090918 00:45	15.5	15.5	15.5	94	14.5	0	0	-100000	0.0	1015.0	0	0.000	0.0
20090918 00:50	15.5	15.5	15.5	94	14.5	0	0	-100000	0.0	1015.0	0	0.000	0.0
20090918 00:55	15.5	15.5	15.5	94	14.5	0	0	-100000	0.0	1014.9	0	0.000	0.0
20090918 01:00	15.5	15.5	15.5	94	14.5	0	0	-100000	0.0	1014.9	0	0.000	0.0
20090918 01:05	15.5	15.5	15.5	94	14.5	0	0	-100000	0.0	1014.9	0	0.000	0.0
20090918 01:10	15.6	15.6	15.6	94	14.6	0	0	-100000	0.0	1015.0	0	0.000	0.0
20090918 01:15	15.6	15.6	15.6	94	14.6	0	0	-100000	0.0	1015.0	0	0.000	0.0
20090918 01:20	15.6	15.6	15.6	94	14.6	0	0	-100000	0.0	1015.0	0	0.000	0.0
20090918 01:25	15.6	15.6	15.6	94	14.6	0	0	-100000	0.0	1015.1	0	0.000	0.0
20090918 01:30	15.5	15.5	15.5	94	14.5	0	0	-100000	0.0	1015.0	0	0.000	0.0
20090918 01:35	15.6	15.6	15.6	94	14.6	0	0	-100000	0.0	1015.0	0	0.000	0.0
20090918 01:40	15.6	15.6	15.6	94	14.6	0	2	45	0.0	1015.0	0	0.000	0.0
20090918 01:45	15.6	15.6	15.6	94	14.6	0	0	-100000	0.0	1015.1	0	0.000	0.0
20090918 01:50	15.6	15.6	15.6	94	14.6	0	0	-100000	0.0	1015.1	0	0.000	0.0
20090918 01:55	15.6	15.6	15.6	94	14.6	0	0	-100000	0.0	1015.0	0	0.000	0.0
20090918 02:00	15.6	15.6	15.6	94	14.6	0	0	-100000	0.0	1015.0	0	0.000	0.0
20090918 02:05	15.5	15.5	15.5	94	14.5	0	0	-100000	0.0	1014.9	0	0.000	0.0
20090918 02:10	15.5	15.5	15.5	94	14.5	0	0	-100000	0.0	1014.9	0	0.000	0.0
20090918 02:15	15.5	15.5	15.5	94	14.5	0	2	45	0.0	1014.9	0	0.000	0.0
20090918 02:20	15.5	15.5	15.5	94	14.5	0	2	45	0.0	1015.0	0	0.000	0.0
20090918 02:25	15.5	15.5	15.5	94	14.5	0	3	45	0.0	1015.0	0	0.000	0.0
20090918 02:30	15.5	15.5	15.5	94	14.5	2	5	45	0.0	1014.9	0	0.000	0.0
20090918 02:35	15.5	15.5	15.5	94	14.5	0	2	45	0.0	1014.9	0	0.000	0.0
20090918 02:40	15.5	15.5	15.5	94	14.5	0	3	45	0.0	1014.9	0	0.000	0.0
20090918 02:45	15.4	15.4	15.4	94	14.5	0	0	-100000	0.0	1015.0	0	0.000	0.0
20090918 02:50	15.4	15.4	15.4	94	14.5	0	0	-100000	0.0	1015.0	0	0.000	0.0
20090918 02:55	15.4	15.4	15.4	94	14.4	0	3	45	0.0	1015.0	0	0.000	0.0
20090918 03:00	15.3	15.3	15.3	94	14.4	0	3	45	0.0	1014.9	0	0.000	0.0
20090918 03:05	15.3	15.3	15.3	94	14.3	0	0	-100000	0.0	1015.1	0	0.000	0.0
20090918 03:10	15.3	15.3	15.3	94	14.3	2	3	45	0.0	1015.1	0	0.000	0.0
20090918 03:15	15.3	15.3	15.3	94	14.3	2	3	45	0.0	1015.1	0	0.000	0.0
20090918 03:20	15.2	15.2	15.2	94	14.3	0	2	45	0.0	1015.1	0	0.000	0.0
20090918 03:25	15.2	15.2	15.2	94	14.3	0	2	45	0.0	1015.0	0	0.000	0.0
20090918 03:30	15.2	15.2	15.2	94	14.2	0	3	45	0.0	1015.1	0	0.000	0.0
20090918 03:35	15.2	15.2	15.2	94	14.2	0	3	45	0.0	1015.1	0	0.000	0.0
20090918 03:40	15.1	15.1	15.1	94	14.2	0	2	45	0.0	1015.1	0	0.000	0.0
20090918 03:45	15.1	15.1	15.1	94	14.1	0	2	45	0.0	1015.1	0	0.000	0.0
20090918 03:50	15.0	15.0	15.0	94	14.0	2	5	45	0.0	1015.0	0	0.000	0.0
20090918 03:55	15.0	15.0	15.0	94	14.0	3	5	45	0.0	1015.0	0	0.000	0.0
20090918 04:00	15.0	15.0	15.0	94	14.0	2	5	45	0.0	1015.1	0	0.000	0.0
20090918 04:05	15.0	15.0	15.0	94	14.0	2	5	45	0.0	1015.1	0	0.000	0.0
20090918 04:10	15.0	15.0	15.0	94	14.0	2	5	45	0.0	1015.1	0	0.000	0.0
20090918 04:15	15.0	15.0	15.0	94	14.0	2	5	68	0.0	1015.1	0	0.000	0.0
20090918 04:20	14.9	14.9	14.9	94	14.0	2	5	68	0.0	1015.2	0	0.000	0.0
20090918 04:25	14.9	14.9	14.9	94	14.0	2	6	68	0.0	1015.2	0	0.000	0.0
20090918 04:30	15.0	15.0	15.0	94	14.0	2	6	90	0.0	1015.1	0	0.000	0.0
20090918 04:35	15.0	15.0	15.0	94	14.0	2	6	90	0.0	1015.2	0	0.000	0.0
20090918 04:40	15.0	15.0	15.0	94	14.0	2	5	90	0.0	1015.2	0	0.000	0.0
20090918 04:45	15.0	15.0	15.0	94	14.0	2	5	90	0.0	1015.1	0	0.000	0.0
20090918 04:50	15.0	15.0	15.0	94	14.0	2	5	90	0.0	1015.2	0	0.000	0.0
20090918 04:55	15.0	15.0	15.0	94	14.0	2	5	90	0.0	1015.1	0	0.000	0.0
20090918 05:00	15.0	15.0	15.0	94	14.0	2	5	90	0.0	1015.1	0	0.000	0.0
20090918 05:05	15.0	15.0	15.0	94	14.0	0	5	90	0.0	1015.1	0	0.000	0.0
20090918 05:10	15.0	15.0	15.0	94	14.0	3	5	90	0.0	1015.0	0	0.000	0.0
20090918 05:15	15.0	15.0	15.0	94	14.0	0	5	90	0.0	1015.0	0	0.000	0.0
20090918 05:20	15.0	15.0	15.0	94	14.0	0	2	90	0.0	1015.0	0	0.000	0.0
20090918 05:25	15.0	15.0	15.0	94	14.0	0	2	90	0.0	1015.0	0	0.000	0.0
20090918 05:30	15.0	15.0	15.0	94	14.0	0	2	90	0.0	1014.9	0	0.000	0.0
20090918 05:35	15.0	15.0	15.0	94	14.0	0	2	90	0.0	1014.9	0	0.000	0.0
20090918 05:40	15.0	15.0	15.0	94	14.0	0	2	90	0.0	1014.9	0	0.000	0.0
20090918 05:45	15.0	15.0	15.0	95	14.2	2	5	90	0.0	1015.0	0	0.000	0.0
20090918 05:50	15.0	15.0	15.0	95	14.2	0	3	90	0.0	1015.0	0	0.000	0.0
20090918 05:55	15.0	15.0	15.0	94	14.0	2	5	90	0.0	1014.9	0	0.000	0.0
20090918 06:00	15.0	15.0	15.0	95	14.2	3	6	90	0.0	1015.0	0	0.000	0.0
20090918 06:05	15.0	15.0	15.0	94	14.0	0	2	90	0.0	1015.1	0	0.000	0.0
20090918 06:10	15.0	15.0	15.0	94	14.0	0	2	90	0.0	1015.1	0	0.000	0.0
20090918 06:15	15.0	15.0	15.0	94	14.0	2	5	90	0.0	1015.1	0	0.000	0.0
20090918 06:20	15.0	15.0	15.0	94	14.0	0	3	90	0.0	1015.1	0	0.000	0.0
20090918 06:25	15.0	15.0	15.0	94	14.0	2	6	90	0.0	1015.0	0	0.000	0.0
20090918 06:30	15.0	15.0	15.0	94	14.0	2	5	90	0.0	1015.1	0	0.000	0.0
20090918 06:35	15.0	15.0	15.0	94	14.0	2	5	90	0.0	1015.1	0	0.000	0.0
20090918 06:40	15.0	15.0	15.0	94	14.0	0	5	90	0.0	1015.1	0	0.000	0.0
20090918 06:45	15.0	15.0	15.0	94	14.0	2	5	90	0.0	1015.2	0	0.000	0.0
20090918 06:50	15.0	15.0	15.0	95	14.2	0	5	90	0.0	1015.2	0	0.000	0.0
20090918 06:55	15.0	15.0	15.0	95	14.2	0	2	90	0.0	1015.2	0	0.000	0.0
20090918 07:00	15.0	15.0	15.0	95	14.2	0	5	90	0.0	1015.3	0	0.000	0.0
20090918 07:05	15.0	15.0	15.0	95	14.2	2	5	90	0.0	1015.3	0	0.000	0.0
20090918 07:10	15.0	15.0	15.0	95	14.2	2	5	90	0.0	1015.4	0	0.000	0.0
20090918 07:15	15.0	15.0	15.0	95	14.2	2	5	90	0.0	1015.4	0	0.000	0.0
20090918 07:20	15.0	15.0	15.0	95	14.2	3	6	90	0.0	1015.3	0	0.000	0.0
20090918 07:25	15.1	15.1	15.1	95	14.3	2	6	90	0.0	1015.4	0	0.000	0.0
20090918 07:30	15.1	15.1	15.1	94	14.2	2	5	90	0.0	1015.4	3	0.000	0.0
20090918 07:35	15.1	15.1	15.1	94	14.2	0	5	90	0.0	1015.4	10	0.000	0.0
20090918 07:40	15.2	15.2	15.2	94	14.2	0	2	90	0.0	1015.4	15	0.000	0.0
20090918 07:45	15.2	15.2	15.2	94	14.2	2	6	90	0.0	1015.4	19	0.000	0.0
20090918 07:50	15.2	15.2	15.2	94	14.3	3	6	90	0.0	1015.5	16	0.000	0.0
20090918 07:55	15.2	15.2	15.2	95	14.4	2	5	90	0.0	1015.6	16	0.000	0.0
20090918 08:00	15.3	15.3	15.3	95	14.5	2	5	90	0.0	1015.6	20	0.000	0.0
20090918 08:05	15.3	15.3	15.3	95	14.5	2	5	90	0.0	1015.6	22	0.000	0.0
20090918 08:10	15.3	15.3	15.3	95	14.5	2	5	90	0.0	1015.7	20	0.000	0.0
20090918 08:15	15.3	15.3	15.3	95	14.5	3	8	90	0.0	1015.7	17	0.000	0.0
20090918 08:20	15.3	15.3	15.3	95	14.5	3	6	90	0.2	1015.7	20	0.000	0.0
20090918 08:25	15.3	15.3	15.3	95	14.5	5	8	90	0.0	1015.7	25	0.000	0.0
20090918 08:30	15.3	15.3	15.3	95	14.5	5	11	90	0.0	1015.7	20	0.000	0.0
20090918 08:35	15.3	15.3	15.3	94	14.3	5	11	68	0.0	1015.7	22	0.000	0.0
20090918 08:40	15.2	15.2	15.2	94	14.3	6	11	68	0.0	1015.7	19	0.000	0.0
20090918 08:45	15.2	15.2	15.2	94	14.3	5	10	90	0.0	1015.7	19	0.000	0.0
20090918 08:50	15.2	15.2	15.2	94	14.3	5	10	90	0.0	1015.7	31	0.000	0.0
20090918 08:55	15.3	15.3	15.3	95	14.5	5	11	68	0.0	1015.6	38	0.000	0.0
20090918 09:00	15.3	15.3	15.3	95	14.5	5	10	90	0.0	1015.7	38	0.025	0.0
20090918 09:05	15.3	15.3	15.3	95	14.5	5	11	90	0.0	1015.7	42	0.000	0.0
20090918 09:10	15.3	15.3	15.3	95	14.5	5	10	112	0.0	1015.8	40	0.000	0.0
20090918 09:15	15.3	15.3	15.3	94	14.4	5	11	90	0.0	1015.8	32	0.000	0.0
20090918 09:20	15.3	15.3	15.3	94	14.4	5	11	90	0.0	1015.8	37	0.000	0.0
20090918 09:25	15.3	15.3	15.3	94	14.4	5	11	90	0.0	1015.7	63	0.000	0.0
20090918 09:30	15.4	15.4	15.4	94	14.4	6	14	112	0.0	1015.8	76	0.000	0.3
20090918 09:35	15.4	15.4	15.4	94	14.5	5	13	90	0.0	1015.8	96	0.000	0.6
20090918 09:40	15.5	15.5	15.5	94	14.5	6	11	112	0.0	1015.8	96	0.000	0.6
20090918 09:45	15.6	15.6	15.6	94	14.6	8	14	112	0.0	1015.7	106	0.000	0.7
20090918 09:50	15.6	15.6	15.6	94	14.6	8	14	112	0.0	1015.8	111	0.000	0.7
20090918 09:55	15.7	15.7	15.7	94	14.7	6	14	112	0.0	1015.9	117	0.000	0.7
20090918 10:00	15.7	15.7	15.7	94	14.8	8	16	112	0.0	1015.9	112	0.051	0.7
20090918 10:05	15.8	15.8	15.8	94	14.8	8	14	112	0.0	1015.9	122	0.000	0.8
20090918 10:10	15.8	15.8	15.8	93	14.7	8	18	112	0.0	1015.9	150	0.000	1.0
20090918 10:15	15.9	15.9	15.9	93	14.8	8	16	112	0.0	1016.0	166	0.000	1.1
20090918 10:20	16.1	16.1	16.1	93	14.9	6	13	135	0.0	1015.9	202	0.000	1.4
20090918 10:25	16.2	16.2	16.2	93	15.1	6	14	112	0.0	1016.0	224	0.000	1.7
20090918 10:30	16.4	16.4	16.4	92	15.1	6	14	112	0.0	1016.0	228	0.000	1.7
20090918 10:35	16.6	16.6	16.6	91	15.1	6	10	112	0.0	1015.9	203	0.000	1.5
20090918 10:40	16.7	16.7	16.7	91	15.2	6	14	112	0.0	1015.9	153	0.000	1.2
20090918 10:45	16.7	16.7	16.7	90	15.1	6	16	90	0.0	1015.9	162	0.000	1.3
20090918 10:50	16.7	16.7	16.7	89	14.8	6	14	90	0.0	1015.9	158	0.000	1.5
20090918 10:55	16.7	16.7	16.7	89	14.8	5	10	112	0.0	1015.9	107	0.000	1.0
20090918 11:00	16.6	16.6	16.6	89	14.8	5	11	90	0.0	1015.8	99	0.102	0.9
20090918 11:05	16.6	16.6	16.6	89	14.7	6	14	90	0.0	1015.8	93	0.000	0.8
20090918 11:10	16.5	16.5	16.5	89	14.7	8	14	90	0.0	1015.7	151	0.000	1.3
20090918 11:15	16.6	16.6	16.6	89	14.7	6	14	90	0.0	1015.8	149	0.000	1.3
20090918 11:20	16.6	16.6	16.6	89	14.7	6	10	112	0.0	1015.8	177	0.000	1.6
20090918 11:25	16.6	16.6	16.6	88	14.6	6	14	68	0.0	1015.7	170	0.000	1.6
20090918 11:30	16.6	16.6	16.6	88	14.6	6	16	90	0.0	1015.6	136	0.000	1.3
20090918 11:35	16.6	16.6	16.6	88	14.6	6	13	68	0.0	1015.7	106	0.000	1.0
20090918 11:40	16.6	16.6	16.6	88	14.6	5	14	90	0.0	1015.6	106	0.000	1.0
20090918 11:45	16.6	16.6	16.6	89	14.7	5	11	90	0.0	1015.6	128	0.000	1.2
20090918 11:50	16.6	16.6	16.6	88	14.6	6	10	90	0.0	1015.6	140	0.000	1.4
20090918 11:55	16.7	16.7	16.7	88	14.7	5	11	112	0.0	1015.5	181	0.000	1.8
20090918 12:00	16.8	16.8	16.8	87	14.6	6	14	112	0.0	1015.5	160	0.076	1.6
20090918 12:05	16.9	16.9	16.9	87	14.7	10	21	112	0.0	1015.5	165	0.000	1.7
20090918 12:10	16.9	16.9	16.9	86	14.6	8	21	135	0.0	1015.5	231	0.000	2.3
20090918 12:15	17.2	17.2	17.2	87	15.0	6	10	112	0.0	1015.5	331	0.000	3.2
20090918 12:20	17.4	17.4	17.4	86	15.1	8	18	112	0.0	1015.5	370	0.000	3.2
20090918 12:25	17.8	17.8	17.8	84	15.0	10	19	90	0.0	1015.3	366	0.000	3.1
20090918 12:30	17.9	17.9	17.9	83	15.0	8	21	112	0.0	1015.3	258	0.000	2.4
20090918 12:35	17.8	17.8	17.8	83	14.8	13	19	112	0.0	1015.3	162	0.000	1.6
20090918 12:40	17.7	17.7	17.7	84	14.9	11	18	112	0.0	1015.2	271	0.000	2.7
20090918 12:45	17.7	17.7	17.7	83	14.8	10	16	112	0.0	1015.3	319	0.000	2.8
20090918 12:50	17.8	17.8	17.8	84	15.0	8	14	112	0.0	1015.2	350	0.000	3.4
20090918 12:55	18.0	18.0	18.0	82	14.9	3	8	90	0.0	1015.1	273	0.000	3.9
20090918 13:00	18.2	18.2	18.2	81	14.9	10	14	135	0.0	1015.0	654	0.203	5.2
20090918 13:05	18.5	18.5	18.5	80	15.0	11	18	112	0.0	1015.0	639	0.000	4.8
20090918 13:10	18.7	18.7	18.7	79	15.0	10	14	112	0.0	1014.9	368	0.000	3.4
20090918 13:15	18.9	18.9	18.9	78	15.0	6	16	135	0.0	1014.8	275	0.000	2.8
20090918 13:20	18.9	18.9	18.9	78	15.0	11	24	112	0.0	1014.9	212	0.000	2.3
20090918 13:25	18.7	18.7	18.7	78	14.8	10	19	112	0.0	1014.9	174	0.000	1.7
20090918 13:30	18.6	18.6	18.6	78	14.6	11	19	112	0.0	1014.8	254	0.000	2.4
20090918 13:35	18.7	18.7	18.7	79	15.0	8	16	112	0.0	1014.8	352	0.000	4.0
20090918 13:40	18.9	18.9	18.9	79	15.2	6	11	112	0.0	1014.8	299	0.000	3.1
20090918 13:45	18.9	18.9	18.9	79	15.2	8	16	90	0.0	1014.8	235	0.000	2.4
20090918 13:50	18.9	18.9	18.9	79	15.2	8	14	112	0.0	1014.8	341	0.000	3.1
20090918 13:55	19.2	19.2	19.2	80	15.7	6	11	112	0.0	1014.7	339	0.000	3.3
20090918 14:00	19.4	19.4	19.4	78	15.4	8	18	112	0.0	1014.7	206	0.203	2.3
20090918 14:05	19.3	19.3	19.3	78	15.4	6	14	112	0.0	1014.6	278	0.000	2.8
20090918 14:10	19.4	19.4	19.4	79	15.6	6	14	112	0.0	1014.6	227	0.000	2.0
20090918 14:15	19.3	19.3	19.3	78	15.4	8	21	68	0.0	1014.6	264	0.000	2.5
20090918 14:20	19.4	19.4	19.4	79	15.7	8	14	68	0.0	1014.6	375	0.000	3.2
20090918 14:25	19.6	19.6	19.6	77	15.4	11	21	68	0.0	1014.5	222	0.000	2.4
20090918 14:30	19.3	19.3	19.3	79	15.6	8	16	68	0.0	1014.4	161	0.000	2.6
20090918 14:35	19.4	19.4	19.4	79	15.7	11	23	68	0.0	1014.4	461	0.000	2.7
20090918 14:40	19.2	19.2	19.2	79	15.5	14	24	68	0.0	1014.4	215	0.000	1.9
20090918 14:45	19.1	19.1	19.1	81	15.8	10	21	68	0.0	1014.3	227	0.000	2.0
20090918 14:50	19.1	19.1	19.1	81	15.8	10	18	68	0.0	1014.3	237	0.000	2.6
20090918 14:55	19.1	19.1	19.1	79	15.4	13	24	45	0.0	1014.3	291	0.000	2.5
20090918 15:00	19.2	19.2	19.2	80	15.6	14	23	68	0.0	1014.2	491	0.203	3.5
20090918 15:05	19.4	19.4	19.4	80	15.9	10	21	68	0.0	1014.2	506	0.000	3.1
20090918 15:10	19.6	19.6	19.6	79	15.8	8	18	68	0.0	1014.1	285	0.000	2.8
20090918 15:15	19.6	19.6	19.6	77	15.5	10	26	68	0.0	1014.0	193	0.000	2.9
20090918 15:20	19.7	19.7	19.7	76	15.4	13	26	68	0.0	1014.0	218	0.000	2.6
20090918 15:25	19.7	19.7	19.7	76	15.3	10	21	68	0.0	1014.0	219	0.000	2.4
20090918 15:30	19.8	19.8	19.8	77	15.6	8	16	68	0.0	1013.9	652	0.000	2.8
20090918 15:35	20.1	20.1	20.1	76	15.7	8	21	68	0.0	1014.0	277	0.000	2.1
20090918 15:40	19.9	19.9	19.9	77	15.8	10	21	68	0.0	1013.9	365	0.000	2.0
20090918 15:45	19.9	19.9	19.9	78	15.9	11	21	68	0.0	1013.9	202	0.000	2.3
20090918 15:50	19.9	19.9	19.9	78	16.0	10	26	68	0.0	1013.8	449	0.000	2.4
20090918 15:55	20.3	20.3	20.3	74	15.5	11	21	68	0.0	1013.7	577	0.000	2.3
20090918 16:00	20.1	20.1	20.1	75	15.5	11	21	90	0.0	1013.8	148	0.229	1.5
20090918 16:05	19.8	19.8	19.8	76	15.5	8	18	90	0.0	1013.9	141	0.000	1.7
20090918 16:10	19.9	19.9	19.9	77	15.8	10	21	90	0.0	1013.8	493	0.000	1.7
20090918 16:15	20.0	20.0	20.0	75	15.4	13	21	68	0.0	1013.8	187	0.000	1.1
20090918 16:20	19.8	19.8	19.8	75	15.3	11	18	90	0.0	1013.9	163	0.000	1.3
20090918 16:25	19.8	19.8	19.8	77	15.7	8	18	68	0.0	1013.8	252	0.000	1.2
20090918 16:30	19.9	19.9	19.9	75	15.4	8	18	90	0.0	1013.8	186	0.000	1.2
20090918 16:35	19.8	19.8	19.8	75	15.3	5	11	112	0.0	1013.7	208	0.000	1.1
20090918 16:40	19.8	19.8	19.8	75	15.3	10	18	68	0.0	1013.8	170	0.000	0.9
20090918 16:45	19.8	19.8	19.8	77	15.6	5	11	90	0.0	1013.7	157	0.000	0.8
20090918 16:50	19.8	19.8	19.8	77	15.6	6	10	90	0.0	1013.8	123	0.000	0.6
20090918 16:55	19.6	19.6	19.6	77	15.5	5	10	68	0.0	1013.8	75	0.000	0.0
20090918 17:00	19.5	19.5	19.5	77	15.4	6	14	90	0.0	1013.7	74	0.127	0.2
20090918 17:05	19.4	19.4	19.4	77	15.3	8	16	90	0.0	1013.7	94	0.000	0.5
20090918 17:10	19.3	19.3	19.3	77	15.2	5	11	90	0.0	1013.8	72	0.000	0.0
20090918 17:15	19.3	19.3	19.3	78	15.4	3	10	135	0.0	1013.6	91	0.000	0.4
20090918 17:20	19.3	19.3	19.3	77	15.1	6	16	90	0.0	1013.6	80	0.000	0.0
20090918 17:25	19.3	19.3	19.3	77	15.1	6	16	112	0.0	1013.5	86	0.000	0.0
20090918 17:30	19.3	19.3	19.3	78	15.3	8	16	68	0.0	1013.6	71	0.000	0.0
20090918 17:35	19.3	19.3	19.3	78	15.3	5	10	90	0.0	1013.5	66	0.000	0.2
20090918 17:40	19.3	19.3	19.3	77	15.1	6	11	90	0.0	1013.6	87	0.000	0.3
20090918 17:45	19.2	19.2	19.2	77	15.1	6	11	112	0.0	1013.5	98	0.000	0.0
20090918 17:50	19.3	19.3	19.3	78	15.3	6	18	112	0.0	1013.5	90	0.000	0.0
20090918 17:55	19.3	19.3	19.3	77	15.1	6	11	112	0.0	1013.4	68	0.000	0.0
20090918 18:00	19.2	19.2	19.2	78	15.3	2	6	112	0.0	1013.4	121	0.076	0.0
20090918 18:05	19.2	19.2	19.2	77	15.1	6	11	135	0.0	1013.4	65	0.000	0.0
20090918 18:10	19.1	19.1	19.1	77	15.0	6	11	112	0.0	1013.4	44	0.000	0.0
20090918 18:15	19.1	19.1	19.1	78	15.1	5	10	90	0.0	1013.5	68	0.000	0.0
20090918 18:20	19.0	19.0	19.0	79	15.3	5	11	90	0.0	1013.5	69	0.000	0.0
20090918 18:25	19.0	19.0	19.0	79	15.3	3	8	112	0.0	1013.5	63	0.000	0.0
20090918 18:30	18.9	18.9	18.9	79	15.2	5	8	90	0.0	1013.5	39	0.000	0.0
20090918 18:35	18.8	18.8	18.8	79	15.1	3	8	90	0.0	1013.5	39	0.000	0.0
20090918 18:40	18.7	18.7	18.7	79	15.0	3	10	112	0.0	1013.5	38	0.000	0.0
20090918 18:45	18.7	18.7	18.7	80	15.1	3	6	90	0.0	1013.6	29	0.000	0.0
20090918 18:50	18.7	18.7	18.7	80	15.1	2	5	112	0.0	1013.6	19	0.000	0.0
20090918 18:55	18.6	18.6	18.6	81	15.2	2	6	112	0.0	1013.6	16	0.000	0.0
20090918 19:00	18.5	18.5	18.5	81	15.2	2	8	90	0.0	1013.6	13	0.025	0.0
20090918 19:05	18.4	18.4	18.4	82	15.3	0	5	90	0.0	1013.5	11	0.000	0.0
20090918 19:10	18.3	18.3	18.3	82	15.2	2	5	90	0.0	1013.4	6	0.000	0.0
20090918 19:15	18.3	18.3	18.3	83	15.3	0	5	90	0.0	1013.4	5	0.000	0.0
20090918 19:20	18.2	18.2	18.2	83	15.2	2	8	68	0.0	1013.4	0	0.000	0.0
20090918 19:25	18.1	18.1	18.1	83	15.1	3	8	68	0.0	1013.5	0	0.000	0.0
20090918 19:30	17.9	17.9	17.9	83	15.0	3	6	68	0.0	1013.4	0	0.000	0.0
20090918 19:35	17.8	17.8	17.8	83	14.8	3	6	90	0.0	1013.5	0	0.000	0.0
20090918 19:40	17.7	17.7	17.7	84	14.9	3	8	90	0.0	1013.5	0	0.000	0.0
20090918 19:45	17.6	17.6	17.6	84	14.8	3	8	68	0.0	1013.5	0	0.000	0.0
20090918 19:50	17.4	17.4	17.4	83	14.5	2	8	90	0.0	1013.5	0	0.000	0.0
20090918 19:55	17.4	17.4	17.4	83	14.5	5	11	90	0.0	1013.8	0	0.000	0.0
20090918 20:00	17.4	17.4	17.4	83	14.5	5	11	112	0.0	1013.8	0	0.000	0.0
20090918 20:05	17.4	17.4	17.4	82	14.3	10	21	90	0.0	1013.7	0	0.000	0.0
20090918 20:10	17.5	17.5	17.5	82	14.4	6	14	90	0.0	1013.5	0	0.000	0.0
20090918 20:15	17.3	17.3	17.3	82	14.2	3	8	112	0.0	1013.8	0	0.000	0.0
20090918 20:20	17.3	17.3	17.3	82	14.2	5	16	90	0.0	1013.8	0	0.000	0.0
20090918 20:25	17.2	17.2	17.2	83	14.3	5	10	90	0.0	1013.9	0	0.000	0.0
20090918 20:30	17.2	17.2	17.2	83	14.3	6	11	68	0.0	1013.8	0	0.000	0.0
20090918 20:35	17.1	17.1	17.1	83	14.1	3	10	90	0.0	1013.8	0	0.000	0.0
20090918 20:40	17.0	17.0	17.0	83	14.1	3	8	90	0.0	1013.8	0	0.000	0.0
20090918 20:45	16.8	16.8	16.8	84	14.1	2	11	90	0.0	1013.9	0	0.000	0.0
20090918 20:50	16.7	16.7	16.7	84	14.0	3	8	68	0.0	1013.8	0	0.000	0.0
20090918 20:55	16.6	16.6	16.6	85	14.1	3	6	68	0.0	1013.8	0	0.000	0.0
20090918 21:00	16.5	16.5	16.5	85	14.0	2	5	68	0.0	1013.8	0	0.025	0.0
20090918 21:05	16.3	16.3	16.3	86	14.0	5	8	68	0.0	1013.8	0	0.000	0.0
20090918 21:10	16.3	16.3	16.3	86	13.9	3	8	68	0.0	1014.1	0	0.000	0.0
20090918 21:15	16.2	16.2	16.2	86	13.8	3	6	90	0.0	1014.1	0	0.000	0.0
20090918 21:20	16.1	16.1	16.1	87	13.9	3	8	68	0.0	1014.1	0	0.000	0.0
20090918 21:25	16.1	16.1	16.1	87	13.9	3	8	90	0.0	1014.0	0	0.000	0.0
20090918 21:30	15.9	15.9	15.9	87	13.8	3	8	90	0.0	1014.1	0	0.000	0.0
20090918 21:35	15.9	15.9	15.9	87	13.7	2	6	90	0.0	1014.0	0	0.000	0.0
20090918 21:40	15.8	15.8	15.8	88	13.8	3	8	90	0.0	1014.1	0	0.000	0.0
20090918 21:45	15.8	15.8	15.8	88	13.8	3	6	68	0.0	1014.1	0	0.000	0.0
20090918 21:50	15.7	15.7	15.7	88	13.7	2	5	68	0.0	1014.1	0	0.000	0.0
20090918 21:55	15.7	15.7	15.7	88	13.7	3	6	68	0.0	1014.2	0	0.000	0.0
20090918 22:00	15.6	15.6	15.6	89	13.8	3	6	68	0.0	1014.2	0	0.025	0.0
20090918 22:05	15.6	15.6	15.6	89	13.8	3	6	68	0.0	1014.1	0	0.000	0.0
20090918 22:10	15.6	15.6	15.6	89	13.8	3	5	68	0.0	1014.1	0	0.000	0.0
20090918 22:15	15.7	15.7	15.7	89	13.9	3	3	68	0.0	1014.0	0	0.000	0.0
20090918 22:20	15.7	15.7	15.7	89	13.9	5	6	68	0.0	1014.0	0	0.000	0.0
20090918 22:25	15.7	15.7	15.7	89	13.9	3	6	68	0.0	1013.8	0	0.000	0.0
20090918 22:30	15.8	15.8	15.8	90	14.1	3	8	68	0.0	1013.9	0	0.000	0.0
20090918 22:35	15.8	15.8	15.8	90	14.2	6	11	68	0.0	1013.8	0	0.000	0.0
20090918 22:40	15.9	15.9	15.9	89	14.1	6	11	68	0.0	1013.8	0	0.000	0.0
20090918 22:45	15.9	15.9	15.9	89	14.1	5	10	68	0.0	1013.8	0	0.000	0.0
20090918 22:50	16.0	16.0	16.0	89	14.2	3	6	68	0.0	1013.8	0	0.000	0.0
20090918 22:55	16.0	16.0	16.0	89	14.2	5	10	68	0.0	1013.8	0	0.000	0.0
20090918 23:00	16.0	16.0	16.0	89	14.2	3	6	68	0.0	1013.8	0	0.025	0.0
20090918 23:05	16.0	16.0	16.0	89	14.2	3	8	68	0.0	1013.8	0	0.000	0.0
20090918 23:10	15.9	15.9	15.9	89	14.1	3	6	112	0.0	1013.9	0	0.000	0.0
20090918 23:15	15.9	15.9	15.9	89	14.1	2	5	112	0.0	1013.9	0	0.000	0.0
20090918 23:20	15.9	15.9	15.9	89	14.1	2	6	112	0.0	1013.8	0	0.000	0.0
20090918 23:25	15.9	15.9	15.9	89	14.1	3	6	112	0.0	1013.8	0	0.000	0.0
20090918 23:30	15.9	15.9	15.9	89	14.1	3	6	90	0.0	1013.8	0	0.000	0.0
20090918 23:35	15.9	15.9	15.9	89	14.1	3	8	68	0.0	1013.8	0	0.000	0.0
20090918 23:40	15.9	15.9	15.9	89	14.1	3	6	112	0.0	1013.8	0	0.000	0.0
20090918 23:45	15.9	15.9	15.9	89	14.1	3	8	90	0.0	1013.9	0	0.000	0.0
20090918 23:50	15.9	15.9	15.9	89	14.1	3	6	112	0.0	1013.8	0	0.000	0.0
20090918 23:55	15.9	15.9	15.9	89	14.1	3	8	68	0.0	1013.8	0	0.000	0.0



Please note the license to use and transfer of this data:
http://creativecommons.org/licenses/by-nc-sa/3.0/deed.en

Bitte beachten sie die Lizenz zur Verwertung und Weitergabe der Daten:
http://creativecommons.org/licenses/by-nc-sa/3.0/deed.de

zurück zur Übersicht der Archivdaten (Monats und Tagesdaten)

Cookies helfen bei der Bereitstellung von Inhalten. Durch die Nutzung dieser Seiten erklärst du dich damit einverstanden, dass Cookies auf deinem Rechner gespeichert werden. Weitere Information